< < Back
Terminal Aerodrome Forecast


Current Version              Previous Versions:   1  2  3  4  5  6  7  8  9  

Terminal Aerodrome Forecast

171
FTUS44 KOHX 241100
TAFCSV
TAF
KCSV 241120Z 2412/2512 00000KT P6SM SCT150
      TEMPO 2412/2413 4SM BR
     FM241400 32005KT P6SM FEW040 SCT150=

Latest METAR

020
SAUS70 KWBC 241200 RRI
MTRCSV
METAR KCSV 241153Z AUTO 00000KT 9SM CLR 07/04 A3011 RMK AO2 SLP195
T00670044 10089 20067 56000


USA.gov is the U.S. government's official web portal to all federal, state and local government web resources and services.